createdAt,value
2018-01-26T00:01:05.595Z,42.90
2018-01-26T00:03:33.433Z,53.67
2018-01-26T00:06:03.389Z,47.23
2018-01-26T00:08:31.651Z,43.00
2018-01-26T00:11:00.862Z,40.57
2018-01-26T00:13:28.810Z,56.47
2018-01-26T00:15:56.846Z,43.77
2018-01-26T00:18:24.761Z,51.40
2018-01-26T00:20:54.483Z,41.63
2018-01-26T00:23:22.339Z,42.57
2018-01-26T00:25:50.195Z,41.03
2018-01-26T00:28:18.043Z,35.87
2018-01-26T00:30:46.828Z,47.83
2018-01-26T00:33:14.683Z,41.07
2018-01-26T00:35:42.540Z,45.13
2018-01-26T00:38:10.739Z,48.47
2018-01-26T00:40:38.755Z,41.87
2018-01-26T00:43:06.657Z,47.03
2018-01-26T00:45:34.498Z,39.23
2018-01-26T00:48:03.284Z,37.73
2018-01-26T00:50:31.232Z,33.03
2018-01-26T00:52:59.125Z,52.90
2018-01-26T00:55:27.016Z,42.50
2018-01-26T00:57:54.868Z,36.57
2018-01-26T01:00:22.855Z,39.73
2018-01-26T01:02:50.737Z,47.80
2018-01-26T01:05:18.591Z,45.73
2018-01-26T01:07:47.744Z,34.60
2018-01-26T01:10:16.497Z,38.10
2018-01-26T01:12:44.423Z,44.00
2018-01-26T01:15:12.487Z,43.13
2018-01-26T01:17:55.377Z,37.23
2018-01-26T01:20:23.229Z,36.93
2018-01-26T01:22:51.280Z,36.40
2018-01-26T01:25:19.396Z,47.27
2018-01-26T01:27:47.424Z,43.50
2018-01-26T01:30:16.338Z,40.60
2018-01-26T01:32:49.587Z,40.87
2018-01-26T06:00:27.554Z,67.43
2018-01-26T06:02:56.189Z,76.10
2018-01-26T06:08:20.323Z,65.27
2018-01-26T06:10:48.199Z,80.20
2018-01-26T06:13:16.073Z,69.93
2018-01-26T06:15:43.906Z,75.53
2018-01-26T06:18:11.764Z,61.73
2018-01-26T06:20:39.625Z,74.13
2018-01-26T06:23:07.472Z,66.50
2018-01-26T06:25:35.305Z,65.27
2018-01-26T06:28:03.136Z,63.60
2018-01-26T06:30:30.952Z,70.23
2018-01-26T06:32:58.769Z,71.17
2018-01-26T06:35:26.625Z,63.50
2018-01-26T06:37:54.575Z,75.73
2018-01-26T06:40:22.439Z,72.07
2018-01-26T06:42:50.277Z,65.97
2018-01-26T06:45:18.091Z,63.60
2018-01-26T06:47:45.927Z,75.70
2018-01-26T06:50:13.740Z,81.80
2018-01-26T06:52:41.557Z,78.27
2018-01-26T06:55:09.378Z,81.60
2018-01-26T06:57:37.216Z,76.93
2018-01-26T07:00:05.043Z,79.00
2018-01-26T07:02:32.876Z,77.90
2018-01-26T07:05:00.704Z,75.50
2018-01-26T07:07:28.576Z,70.50
2018-01-26T07:09:56.540Z,71.77
2018-01-26T07:12:24.344Z,73.63
2018-01-26T07:14:52.143Z,78.23
2018-01-26T07:17:20.010Z,73.33
2018-01-26T07:19:47.808Z,64.33
2018-01-26T07:22:15.623Z,67.30
2018-01-26T07:24:43.437Z,71.50
2018-01-26T07:27:11.235Z,75.97
2018-01-26T07:29:39.060Z,70.80
2018-01-26T07:32:06.921Z,72.00
2018-01-26T07:34:34.741Z,68.30
2018-01-26T07:37:02.937Z,73.43
2018-01-26T07:39:30.900Z,77.27
2018-01-26T07:41:58.736Z,65.27
2018-01-26T07:44:26.553Z,72.13
2018-01-26T07:46:54.400Z,73.30
2018-01-26T07:49:22.276Z,80.77
2018-01-26T07:51:50.107Z,80.10
2018-01-26T07:54:17.944Z,84.93
2018-01-26T07:56:45.830Z,77.10
2018-01-26T07:59:14.729Z,86.37
2018-01-26T08:01:42.811Z,83.13
2018-01-26T08:07:06.401Z,83.10
2018-01-26T08:09:34.264Z,76.57
2018-01-26T08:12:02.075Z,89.03
2018-01-26T08:14:29.922Z,93.73
2018-01-26T08:16:58.555Z,97.87
2018-01-26T08:19:26.393Z,97.73
2018-01-26T08:21:54.216Z,91.13
2018-01-26T08:24:22.054Z,106.97
2018-01-26T08:26:50.241Z,87.20
2018-01-26T08:29:18.073Z,86.77
2018-01-26T08:31:45.886Z,99.77
2018-01-26T08:34:13.725Z,96.30
2018-01-26T08:36:41.541Z,97.43
2018-01-26T08:39:09.396Z,105.60
2018-01-26T08:41:37.221Z,94.47
2018-01-26T08:44:05.068Z,105.30
2018-01-26T08:46:32.917Z,86.50
2018-01-26T08:49:00.726Z,111.90
2018-01-26T08:51:28.904Z,95.03
2018-01-26T08:53:56.723Z,82.63
2018-01-26T08:56:24.560Z,104.83
2018-01-26T08:58:52.376Z,94.33
2018-01-26T09:01:20.207Z,96.70
2018-01-26T09:03:48.035Z,113.20
2018-01-26T09:06:15.965Z,102.50
2018-01-26T09:08:43.772Z,102.53
2018-01-26T09:11:11.592Z,106.47
2018-01-26T09:13:39.395Z,116.97
2018-01-26T09:16:07.233Z,101.80
2018-01-26T09:18:35.053Z,110.07
2018-01-26T09:21:02.872Z,115.83
2018-01-26T09:23:30.684Z,121.70
2018-01-26T09:25:58.507Z,107.60
2018-01-26T09:28:26.333Z,98.03
2018-01-26T09:30:54.143Z,104.40
2018-01-26T09:33:22.013Z,107.70
2018-01-26T09:35:49.879Z,102.63
2018-01-26T09:38:17.705Z,113.77
2018-01-26T09:40:45.511Z,100.50
2018-01-26T09:43:13.383Z,97.30
2018-01-26T09:45:41.224Z,95.13
2018-01-26T09:48:09.135Z,99.10
2018-01-26T09:50:36.977Z,103.20
2018-01-26T09:53:04.803Z,112.87
2018-01-26T09:55:32.652Z,113.00
2018-01-26T09:58:00.443Z,117.23
2018-01-26T10:00:28.264Z,98.83
2018-01-26T10:02:56.095Z,102.10
2018-01-26T10:05:23.928Z,91.60
2018-01-26T10:07:51.752Z,112.80
2018-01-26T10:10:19.588Z,101.63
2018-01-26T10:12:47.450Z,105.20
2018-01-26T10:15:15.262Z,95.73
2018-01-26T10:17:43.083Z,97.97
2018-01-26T10:20:10.904Z,122.20
2018-01-26T10:22:38.738Z,105.63
2018-01-26T10:25:06.576Z,96.10
2018-01-26T10:27:34.415Z,115.13
2018-01-26T10:30:02.259Z,114.33
2018-01-26T10:32:30.073Z,108.50
2018-01-26T10:34:57.903Z,97.23
2018-01-26T10:37:25.729Z,97.37
2018-01-26T10:39:53.547Z,93.20
2018-01-26T10:42:21.396Z,106.90
2018-01-26T10:44:49.224Z,95.60
2018-01-26T10:47:17.068Z,100.20
2018-01-26T10:49:44.883Z,97.47
2018-01-26T10:52:12.763Z,92.33
2018-01-26T10:54:40.595Z,98.20
2018-01-26T10:57:08.432Z,100.23
2018-01-26T10:59:36.243Z,90.50
2018-01-26T11:02:04.057Z,114.00
2018-01-26T11:04:31.880Z,88.10
2018-01-26T11:06:59.695Z,103.43
2018-01-26T11:09:27.518Z,93.53
2018-01-26T11:11:55.358Z,97.77
2018-01-26T11:14:23.173Z,90.20
2018-01-26T11:16:50.988Z,93.37
2018-01-26T11:19:18.887Z,93.07
2018-01-26T11:21:46.724Z,105.60
2018-01-26T11:24:14.594Z,104.37
2018-01-26T11:26:42.413Z,93.63
2018-01-26T11:29:10.262Z,110.30
2018-01-26T11:31:38.093Z,96.93
2018-01-26T11:34:05.936Z,103.93
2018-01-26T11:36:33.762Z,119.80
2018-01-26T11:39:01.589Z,101.47
2018-01-26T11:41:29.407Z,111.50
2018-01-26T11:43:57.227Z,102.50
2018-01-26T11:46:25.055Z,103.73
2018-01-26T11:48:52.874Z,97.93
2018-01-26T11:51:20.723Z,102.33
2018-01-26T11:53:48.541Z,114.63
2018-01-26T11:56:16.373Z,86.90
2018-01-26T11:58:44.196Z,97.27
2018-01-26T12:01:12.040Z,94.83
2018-01-26T12:03:39.851Z,85.03
2018-01-26T12:06:07.698Z,101.30
2018-01-26T12:08:35.517Z,96.27
2018-01-26T12:11:03.333Z,93.33
2018-01-26T12:13:31.153Z,101.17
2018-01-26T12:15:58.959Z,78.77
2018-01-26T12:18:26.850Z,85.97
2018-01-26T12:20:54.664Z,78.47
2018-01-26T12:23:22.476Z,89.13
2018-01-26T12:25:50.332Z,105.40
2018-01-26T12:28:18.198Z,83.63
2018-01-26T12:30:46.043Z,70.27
2018-01-26T12:33:13.879Z,81.23
2018-01-26T12:35:41.696Z,83.23
2018-01-26T12:38:09.528Z,73.93
2018-01-26T12:40:37.355Z,84.40
2018-01-26T12:43:05.220Z,94.37
2018-01-26T12:45:33.037Z,97.40
2018-01-26T12:48:00.883Z,86.50
2018-01-26T12:50:28.725Z,96.33
2018-01-26T12:52:56.568Z,99.67
2018-01-26T12:55:24.411Z,93.20
2018-01-26T12:57:52.260Z,108.73
2018-01-26T13:00:20.107Z,114.70
2018-01-26T13:02:47.958Z,121.27
2018-01-26T13:05:15.799Z,132.57
2018-01-26T13:07:43.676Z,117.63
2018-01-26T13:10:11.509Z,113.60
2018-01-26T13:12:39.363Z,136.17
2018-01-26T13:15:07.188Z,138.17
2018-01-26T13:17:35.031Z,152.87
2018-01-26T13:20:02.900Z,132.87
2018-01-26T13:22:30.768Z,134.17
2018-01-26T13:24:58.596Z,130.63
2018-01-26T13:27:26.466Z,144.60
2018-01-26T13:29:54.311Z,147.83
2018-01-26T13:32:22.159Z,139.40
2018-01-26T13:34:49.963Z,141.33
2018-01-26T13:37:17.787Z,144.93
2018-01-26T13:39:45.685Z,145.57
2018-01-26T13:42:13.469Z,123.57
2018-01-26T13:44:41.309Z,146.07
2018-01-26T13:47:09.177Z,131.53
2018-01-26T13:49:37.032Z,134.80
2018-01-26T13:52:04.911Z,171.00
2018-01-26T13:54:32.748Z,145.73
2018-01-26T13:57:00.594Z,189.10
2018-01-26T13:59:28.444Z,128.07
2018-01-26T14:01:56.299Z,125.03
2018-01-26T14:04:24.147Z,127.10
2018-01-26T14:06:51.968Z,135.33
2018-01-26T14:09:19.817Z,121.07
2018-01-26T14:11:47.660Z,121.77
2018-01-26T14:14:15.492Z,109.57
2018-01-26T14:16:43.334Z,119.40
2018-01-26T14:19:11.179Z,115.97
2018-01-26T14:21:39.013Z,125.17
2018-01-26T14:24:06.838Z,120.87
2018-01-26T14:26:34.811Z,144.23
2018-01-26T14:29:02.553Z,150.80
2018-01-26T14:31:30.391Z,155.90
2018-01-26T14:33:58.225Z,148.67
2018-01-26T14:36:26.080Z,160.07
2018-01-26T14:38:53.913Z,137.67
2018-01-26T14:41:21.728Z,132.07
2018-01-26T14:43:49.535Z,145.73
2018-01-26T14:46:17.367Z,117.70
2018-01-26T14:48:45.203Z,127.17
2018-01-26T14:51:13.048Z,129.30
2018-01-26T14:53:40.880Z,122.00
2018-01-26T14:56:08.736Z,119.67
2018-01-26T14:58:36.551Z,140.20
2018-01-26T15:01:04.395Z,118.07
2018-01-26T15:03:32.219Z,120.80
2018-01-26T15:06:00.047Z,126.67
2018-01-26T15:08:27.919Z,120.27
2018-01-26T15:10:55.768Z,128.63
2018-01-26T15:13:23.624Z,133.90
2018-01-26T15:15:51.452Z,139.10
2018-01-26T15:18:19.268Z,132.93
2018-01-26T15:20:47.128Z,120.67
2018-01-26T15:23:14.969Z,121.10
2018-01-26T15:25:42.826Z,194.97
2018-01-26T15:28:10.703Z,226.73
2018-01-26T15:30:38.538Z,139.90
2018-01-26T15:33:06.387Z,116.87
2018-01-26T15:35:34.229Z,122.43
2018-01-26T15:38:02.083Z,104.47
2018-01-26T15:40:29.887Z,125.57
2018-01-26T15:42:57.718Z,113.17
2018-01-26T15:45:25.547Z,113.10
2018-01-26T15:47:53.384Z,108.97
2018-01-26T15:50:21.221Z,124.53
2018-01-26T15:52:49.063Z,103.30
2018-01-26T15:55:16.953Z,112.80
2018-01-26T15:57:44.791Z,105.47
2018-01-26T16:00:12.615Z,93.27
2018-01-26T16:02:40.463Z,124.93
2018-01-26T16:05:08.300Z,112.03
2018-01-26T16:07:36.155Z,113.23
2018-01-26T16:10:03.988Z,111.17
2018-01-26T16:12:31.835Z,147.33
2018-01-26T16:14:59.683Z,149.43
2018-01-26T16:17:27.524Z,115.37
2018-01-26T16:19:55.359Z,123.23
2018-01-26T16:22:23.203Z,117.77
2018-01-26T16:24:51.038Z,110.87
2018-01-26T16:27:18.872Z,89.57
2018-01-26T16:29:46.719Z,85.73
2018-01-26T16:32:14.622Z,103.20
2018-01-26T16:34:42.472Z,96.77
2018-01-26T16:37:10.303Z,98.57
2018-01-26T16:39:38.130Z,114.20
2018-01-26T16:42:05.961Z,186.30
2018-01-26T16:44:33.831Z,101.57
2018-01-26T16:47:01.658Z,88.00
2018-01-26T16:49:29.484Z,96.00
2018-01-26T16:51:57.331Z,78.57
2018-01-26T16:54:25.163Z,91.37
2018-01-26T16:56:52.983Z,97.97
2018-01-26T16:59:20.824Z,81.63
2018-01-26T17:01:48.758Z,79.17
2018-01-26T17:04:16.599Z,83.10
2018-01-26T17:06:44.504Z,77.10
2018-01-26T17:09:12.347Z,93.33
2018-01-26T17:11:40.191Z,84.40
2018-01-26T17:14:08.067Z,78.87
2018-01-26T17:16:35.903Z,84.00
2018-01-26T17:19:03.735Z,94.13
2018-01-26T17:21:31.597Z,94.90
2018-01-26T17:23:59.421Z,104.00
2018-01-26T17:26:27.272Z,84.83
2018-01-26T17:28:55.110Z,102.93
2018-01-26T17:31:22.964Z,77.37
2018-01-26T17:33:50.790Z,107.93
2018-01-26T17:36:18.616Z,73.50
2018-01-26T17:38:46.447Z,103.53
2018-01-26T17:41:14.294Z,80.63
2018-01-26T17:43:42.132Z,90.20
2018-01-26T17:46:09.976Z,91.83
2018-01-26T17:48:37.797Z,104.87
2018-01-26T17:51:05.617Z,103.00
2018-01-26T17:53:33.424Z,114.97
2018-01-26T17:56:01.252Z,101.90
2018-01-26T17:58:29.080Z,103.30
2018-01-26T18:00:56.912Z,109.20
2018-01-26T18:03:24.753Z,96.83
2018-01-26T18:05:52.579Z,109.30
2018-01-26T18:08:20.391Z,83.10
2018-01-26T18:10:48.229Z,101.70
2018-01-26T18:13:16.036Z,86.13
2018-01-26T18:15:43.873Z,92.30
2018-01-26T18:18:12.864Z,98.13
2018-01-26T18:20:40.706Z,81.87
2018-01-26T18:23:08.571Z,99.70
2018-01-26T18:25:36.380Z,81.00
2018-01-26T18:28:04.207Z,93.77
2018-01-26T18:30:32.058Z,111.57
2018-01-26T18:32:59.936Z,84.93
2018-01-26T18:35:28.786Z,95.67
2018-01-26T18:41:04.087Z,92.93
2018-01-26T18:43:38.749Z,96.00
2018-01-26T18:46:16.178Z,117.97
2018-01-26T18:51:45.557Z,98.83
2018-01-26T18:57:07.689Z,115.47
2018-01-26T18:59:37.242Z,81.87
2018-01-26T19:02:08.667Z,134.43
2018-01-26T19:04:37.497Z,112.93
2018-01-26T19:09:52.672Z,126.80
2018-01-26T19:12:20.527Z,140.03
2018-01-26T19:14:49.981Z,133.07
2018-01-26T19:26:28.906Z,77.00
2018-01-26T19:29:07.616Z,126.60
2018-01-26T19:34:37.383Z,150.43
2018-01-26T19:43:11.144Z,143.57
2018-01-26T19:48:34.432Z,160.33
2018-01-26T19:51:09.525Z,149.27
2018-01-26T19:53:38.885Z,167.87
2018-01-26T19:56:09.030Z,173.03
2018-01-26T19:58:36.868Z,160.47
2018-01-26T20:10:15.185Z,137.27
2018-01-26T20:15:39.073Z,123.03
2018-01-26T20:21:08.204Z,110.93
2018-01-26T20:23:39.397Z,104.60
2018-01-26T20:29:11.667Z,101.27
2018-01-26T20:31:40.029Z,110.70
2018-01-26T20:37:02.999Z,112.53
2018-01-26T20:39:31.963Z,101.00
2018-01-26T20:42:07.753Z,92.93
2018-01-26T20:47:33.327Z,108.60
2018-01-26T20:53:07.226Z,80.10
2018-01-26T20:55:46.050Z,95.30
2018-01-26T21:01:15.224Z,93.07
2018-01-26T21:03:54.463Z,86.73
2018-01-26T21:06:37.227Z,83.50
2018-01-26T21:09:08.794Z,80.37
2018-01-26T21:17:13.323Z,78.67
2018-01-26T21:19:44.442Z,89.47
2018-01-26T21:22:13.437Z,82.23
2018-01-26T21:27:37.518Z,82.23
2018-01-26T21:44:32.695Z,79.97
2018-01-26T21:59:05.563Z,70.70
2018-01-26T22:01:40.974Z,78.13
2018-01-26T22:06:49.810Z,80.87
2018-01-26T22:15:05.943Z,61.53
2018-01-26T22:23:39.662Z,66.20
2018-01-26T22:26:08.133Z,74.40
2018-01-26T22:34:18.702Z,76.87
2018-01-26T22:36:47.225Z,69.50
2018-01-26T22:42:12.893Z,91.70
2018-01-26T22:47:42.229Z,90.87
2018-01-26T22:50:14.323Z,74.47
2018-01-26T22:52:42.850Z,75.90
2018-01-26T22:55:10.700Z,83.93
2018-01-26T23:12:21.335Z,75.03
2018-01-26T23:23:37.565Z,61.20
2018-01-26T23:26:06.077Z,63.97
2018-01-26T23:28:34.053Z,56.90
2018-01-26T23:31:02.028Z,58.10
2018-01-26T23:36:24.111Z,54.13
2018-01-26T23:39:07.664Z,49.60
2018-01-26T23:41:35.639Z,49.50
2018-01-26T23:44:07.461Z,44.57
2018-01-26T23:46:38.001Z,47.60
2018-01-26T23:49:06.173Z,51.80
2018-01-26T23:51:37.456Z,54.67
2018-01-26T23:54:06.955Z,51.07
2018-01-26T23:56:34.797Z,55.87
2018-01-26T23:59:02.653Z,48.00
